Date,TemperatureHighF,TemperatureAvgF,TemperatureLowF,DewpointHighF,DewpointAvgF,DewpointLowF,HumidityHigh,HumidityAvg,HumidityLow,PressureMaxIn,PressureMinIn,WindSpeedMaxMPH,WindSpeedAvgMPH,GustSpeedMaxMPH,PrecipitationSumIn
2013-2-1,21,14,8,12,7,1,90,72,62,30.48,30.10,17,4,26,0.00
2013-2-2,33,26,12,30,22,9,94,88,76,30.37,30.03,7,1,14,0.13
2013-2-3,31,25,17,26,21,15,93,82,75,30.16,29.97,12,3,16,0.00
2013-2-4,40,28,14,35,25,12,98,90,68,30.15,29.84,9,1,12,0.30
2013-2-5,45,37,31,39,34,29,99,89,71,30.02,29.86,9,1,13,0.01
2013-2-6,41,36,29,36,31,27,94,83,70,30.27,30.03,6,1,7,0.00
2013-2-7,64,44,30,45,36,28,95,78,46,30.20,29.81,4,1,9,0.00
2013-2-8,50,39,29,48,34,26,97,85,73,30.34,29.81,15,4,23,0.09
2013-2-9,45,31,20,28,24,19,95,78,47,30.44,30.22,9,2,10,0.00
2013-2-10,55,42,27,48,37,24,95,82,54,30.21,29.80,14,1,14,0.06
2013-2-11,54,48,37,52,39,31,95,70,51,30.07,29.78,18,5,29,0.00
2013-2-12,51,36,24,35,29,22,96,76,44,30.16,29.91,4,1,9,0.00
2013-2-13,40,33,25,34,30,24,96,89,75,29.92,29.77,5,1,13,0.05
2013-2-14,55,42,25,42,36,24,97,80,53,30.01,29.84,13,3,18,0.00
2013-2-15,43,34,25,34,29,22,94,82,58,30.18,30.00,12,3,20,0.00
2013-2-16,33,25,18,22,18,14,95,74,50,30.17,30.07,13,4,19,0.00
2013-2-17,36,25,18,20,14,10,88,66,35,30.28,30.15,10,2,13,0.00
2013-2-18,60,40,18,43,30,13,92,70,47,30.22,29.76,11,3,26,0.12
2013-2-19,47,35,26,43,28,17,95,75,60,30.17,29.69,21,8,31,0.19
2013-2-20,33,26,20,19,16,13,83,65,50,30.32,30.17,17,4,19,0.00
2013-2-21,36,27,16,30,21,14,91,80,63,30.37,30.05,17,4,20,0.05
2013-2-22,46,37,31,42,35,29,98,92,80,30.06,29.89,10,2,15,0.27
2013-2-23,46,37,31,34,29,26,98,75,52,30.02,29.90,7,2,12,0.00
2013-2-24,46,32,22,32,26,21,95,80,54,30.15,29.96,7,2,10,0.00
2013-2-25,49,35,20,32,26,19,94,72,48,30.17,29.87,14,5,16,0.00
2013-2-26,50,43,38,49,39,28,98,87,60,29.87,29.34,14,4,31,0.67
2013-2-27,42,39,35,40,35,31,94,88,74,29.76,29.54,19,4,22,0.03
2013-2-28,38,36,34,35,33,30,94,89,85,29.98,29.74,14,4,17,0.01